sensor_id;sensor_type;location;lat;lon;timestamp;pressure;altitude;pressure_sealevel;temperature;humidity
48630;BME280;34426;52.180;4.462;2023-03-11T00:00:37;100880.16;;;2.37;50.50
48630;BME280;34426;52.180;4.462;2023-03-11T00:03:05;100882.72;;;2.39;50.61
48630;BME280;34426;52.180;4.462;2023-03-11T00:05:36;100883.56;;;2.26;52.49
48630;BME280;34426;52.180;4.462;2023-03-11T00:08:05;100875.50;;;2.18;52.10
48630;BME280;34426;52.180;4.462;2023-03-11T00:10:34;100877.19;;;2.19;51.87
48630;BME280;34426;52.180;4.462;2023-03-11T00:13:03;100874.03;;;2.09;52.75
48630;BME280;34426;52.180;4.462;2023-03-11T00:15:31;100891.84;;;1.99;54.01
48630;BME280;34426;52.180;4.462;2023-03-11T00:17:59;100891.66;;;2.08;53.62
48630;BME280;34426;52.180;4.462;2023-03-11T00:20:28;100900.34;;;2.11;54.70
48630;BME280;34426;52.180;4.462;2023-03-11T00:22:59;100902.25;;;2.11;53.71
48630;BME280;34426;52.180;4.462;2023-03-11T00:25:28;100902.69;;;2.08;53.79
48630;BME280;34426;52.180;4.462;2023-03-11T00:27:56;100908.00;;;2.16;53.13
48630;BME280;34426;52.180;4.462;2023-03-11T00:30:24;100906.50;;;2.13;53.47
48630;BME280;34426;52.180;4.462;2023-03-11T00:32:53;100913.91;;;2.26;52.63
48630;BME280;34426;52.180;4.462;2023-03-11T00:35:22;100920.06;;;2.28;52.57
48630;BME280;34426;52.180;4.462;2023-03-11T00:37:52;100926.22;;;2.30;52.49
48630;BME280;34426;52.180;4.462;2023-03-11T00:40:23;100933.03;;;2.34;53.09
48630;BME280;34426;52.180;4.462;2023-03-11T00:42:52;100931.53;;;2.25;54.62
48630;BME280;34426;52.180;4.462;2023-03-11T00:45:20;100920.91;;;2.22;53.20
48630;BME280;34426;52.180;4.462;2023-03-11T00:47:48;100942.59;;;2.12;53.47
48630;BME280;34426;52.180;4.462;2023-03-11T00:50:19;100944.47;;;2.18;54.14
48630;BME280;34426;52.180;4.462;2023-03-11T00:52:47;100933.44;;;2.18;54.21
48630;BME280;34426;52.180;4.462;2023-03-11T00:55:18;100933.66;;;2.10;54.09
48630;BME280;34426;52.180;4.462;2023-03-11T00:57:49;100930.69;;;1.98;55.13
48630;BME280;34426;52.180;4.462;2023-03-11T01:00:19;100931.31;;;1.93;55.40
48630;BME280;34426;52.180;4.462;2023-03-11T01:02:47;100931.31;;;1.93;56.02
48630;BME280;34426;52.180;4.462;2023-03-11T01:05:16;100931.50;;;1.85;56.91
48630;BME280;34426;52.180;4.462;2023-03-11T01:07:44;100945.06;;;1.80;56.62
48630;BME280;34426;52.180;4.462;2023-03-11T01:10:15;100950.78;;;1.72;56.70
48630;BME280;34426;52.180;4.462;2023-03-11T01:12:43;100946.53;;;1.83;54.82
48630;BME280;34426;52.180;4.462;2023-03-11T01:15:16;100953.13;;;1.88;54.92
48630;BME280;34426;52.180;4.462;2023-03-11T01:17:45;100956.97;;;1.87;55.26
48630;BME280;34426;52.180;4.462;2023-03-11T01:20:13;100950.56;;;1.80;54.43
48630;BME280;34426;52.180;4.462;2023-03-11T01:22:41;100948.25;;;1.71;55.82
48630;BME280;34426;52.180;4.462;2023-03-11T01:25:11;100943.34;;;1.66;57.05
48630;BME280;34426;52.180;4.462;2023-03-11T01:27:41;100956.47;;;1.64;56.52
48630;BME280;34426;52.180;4.462;2023-03-11T01:30:13;100955.19;;;1.60;57.67
48630;BME280;34426;52.180;4.462;2023-03-11T01:32:42;100957.31;;;1.58;57.42
48630;BME280;34426;52.180;4.462;2023-03-11T01:35:11;100955.22;;;1.66;56.92
48630;BME280;34426;52.180;4.462;2023-03-11T01:37:39;100951.38;;;1.61;58.25
48630;BME280;34426;52.180;4.462;2023-03-11T01:40:10;100954.72;;;1.50;59.16
48630;BME280;34426;52.180;4.462;2023-03-11T01:42:39;100953.44;;;1.46;58.74
48630;BME280;34426;52.180;4.462;2023-03-11T01:45:28;100954.31;;;1.53;58.11
48630;BME280;34426;52.180;4.462;2023-03-11T01:47:59;100962.22;;;1.62;58.71
48630;BME280;34426;52.180;4.462;2023-03-11T01:50:28;100962.66;;;1.66;58.64
48630;BME280;34426;52.180;4.462;2023-03-11T01:52:58;100967.31;;;1.65;58.31
48630;BME280;34426;52.180;4.462;2023-03-11T01:55:26;100970.47;;;1.62;57.88
48630;BME280;34426;52.180;4.462;2023-03-11T01:57:54;100969.03;;;1.73;57.64
48630;BME280;34426;52.180;4.462;2023-03-11T02:00:24;100969.63;;;1.62;58.70
48630;BME280;34426;52.180;4.462;2023-03-11T02:02:53;100976.00;;;1.62;59.32
48630;BME280;34426;52.180;4.462;2023-03-11T02:05:22;100975.13;;;1.55;60.31
48630;BME280;34426;52.180;4.462;2023-03-11T02:07:50;100977.25;;;1.60;59.62
48630;BME280;34426;52.180;4.462;2023-03-11T02:10:19;100976.81;;;1.56;60.07
48630;BME280;34426;52.180;4.462;2023-03-11T02:12:48;100969.19;;;1.58;60.46
48630;BME280;34426;52.180;4.462;2023-03-11T02:15:17;100962.88;;;1.78;58.95
48630;BME280;34426;52.180;4.462;2023-03-11T02:17:46;100971.56;;;1.68;60.90
48630;BME280;34426;52.180;4.462;2023-03-11T02:20:26;100967.09;;;1.67;60.57
48630;BME280;34426;52.180;4.462;2023-03-11T02:22:56;100968.34;;;1.58;61.12
48630;BME280;34426;52.180;4.462;2023-03-11T02:25:31;100964.06;;;1.49;62.75
48630;BME280;34426;52.180;4.462;2023-03-11T02:28:07;100968.91;;;1.47;63.30
48630;BME280;34426;52.180;4.462;2023-03-11T02:30:37;100969.06;;;1.32;64.07
48630;BME280;34426;52.180;4.462;2023-03-11T02:33:06;100971.19;;;1.37;63.71
48630;BME280;34426;52.180;4.462;2023-03-11T02:35:34;100973.38;;;1.48;62.79
48630;BME280;34426;52.180;4.462;2023-03-11T02:38:01;100968.69;;;1.42;63.06
48630;BME280;34426;52.180;4.462;2023-03-11T02:40:55;100961.66;;;1.32;62.83
48630;BME280;34426;52.180;4.462;2023-03-11T02:43:30;100969.97;;;1.46;60.46
48630;BME280;34426;52.180;4.462;2023-03-11T02:45:59;100968.56;;;1.63;60.09
48630;BME280;34426;52.180;4.462;2023-03-11T02:48:28;100972.38;;;1.62;60.14
48630;BME280;34426;52.180;4.462;2023-03-11T02:50:56;100974.91;;;1.57;59.35
48630;BME280;34426;52.180;4.462;2023-03-11T02:53:25;100972.78;;;1.59;59.35
48630;BME280;34426;52.180;4.462;2023-03-11T02:55:54;100976.19;;;1.61;59.71
48630;BME280;34426;52.180;4.462;2023-03-11T02:58:21;100980.19;;;1.52;59.70
48630;BME280;34426;52.180;4.462;2023-03-11T03:00:51;100979.03;;;1.33;61.25
48630;BME280;34426;52.180;4.462;2023-03-11T03:03:19;100979.72;;;1.42;60.45
48630;BME280;34426;52.180;4.462;2023-03-11T03:05:46;100986.44;;;1.26;61.88
48630;BME280;34426;52.180;4.462;2023-03-11T03:08:14;100990.72;;;1.42;60.21
48630;BME280;34426;52.180;4.462;2023-03-11T03:10:41;100992.03;;;1.46;60.28
48630;BME280;34426;52.180;4.462;2023-03-11T03:13:09;100987.00;;;1.62;59.35
48630;BME280;34426;52.180;4.462;2023-03-11T03:15:36;100998.25;;;1.61;59.37
48630;BME280;34426;52.180;4.462;2023-03-11T03:18:06;100992.16;;;1.72;58.52
48630;BME280;34426;52.180;4.462;2023-03-11T03:20:34;100996.78;;;1.65;59.27
48630;BME280;34426;52.180;4.462;2023-03-11T03:23:01;101002.25;;;1.58;59.51
48630;BME280;34426;52.180;4.462;2023-03-11T03:25:28;101009.28;;;1.61;59.38
48630;BME280;34426;52.180;4.462;2023-03-11T03:27:56;101004.41;;;1.63;58.43
48630;BME280;34426;52.180;4.462;2023-03-11T03:30:23;101009.94;;;1.70;58.50
48630;BME280;34426;52.180;4.462;2023-03-11T03:32:50;101011.22;;;1.67;59.44
48630;BME280;34426;52.180;4.462;2023-03-11T03:35:20;101011.56;;;1.51;60.34
48630;BME280;34426;52.180;4.462;2023-03-11T03:37:47;101015.13;;;1.45;60.35
48630;BME280;34426;52.180;4.462;2023-03-11T03:40:15;101025.50;;;1.43;60.37
48630;BME280;34426;52.180;4.462;2023-03-11T03:42:42;101027.44;;;1.49;60.27
48630;BME280;34426;52.180;4.462;2023-03-11T03:45:13;101026.88;;;1.60;59.25
48630;BME280;34426;52.180;4.462;2023-03-11T03:47:40;101037.22;;;1.51;60.00
48630;BME280;34426;52.180;4.462;2023-03-11T03:50:09;101035.94;;;1.54;59.76
48630;BME280;34426;52.180;4.462;2023-03-11T03:52:39;101036.59;;;1.56;59.95
48630;BME280;34426;52.180;4.462;2023-03-11T03:55:06;101038.47;;;1.49;60.46
48630;BME280;34426;52.180;4.462;2023-03-11T03:57:34;101042.38;;;1.26;61.49
48630;BME280;34426;52.180;4.462;2023-03-11T04:00:02;101040.44;;;1.20;61.45
48630;BME280;34426;52.180;4.462;2023-03-11T04:02:30;101046.75;;;1.14;61.75
48630;BME280;34426;52.180;4.462;2023-03-11T04:04:58;101043.75;;;1.09;62.20
48630;BME280;34426;52.180;4.462;2023-03-11T04:07:25;101056.38;;;0.97;63.67
48630;BME280;34426;52.180;4.462;2023-03-11T04:09:54;101054.97;;;1.08;63.62
48630;BME280;34426;52.180;4.462;2023-03-11T04:12:21;101044.44;;;0.90;64.00
48630;BME280;34426;52.180;4.462;2023-03-11T04:14:49;101041.22;;;0.80;65.65
48630;BME280;34426;52.180;4.462;2023-03-11T04:17:17;101054.66;;;0.68;66.29
48630;BME280;34426;52.180;4.462;2023-03-11T04:19:44;101043.31;;;0.78;65.06
48630;BME280;34426;52.180;4.462;2023-03-11T04:22:11;101054.00;;;0.66;64.86
48630;BME280;34426;52.180;4.462;2023-03-11T04:24:38;101059.31;;;0.46;66.26
48630;BME280;34426;52.180;4.462;2023-03-11T04:27:09;101054.84;;;0.39;67.03
48630;BME280;34426;52.180;4.462;2023-03-11T04:29:36;101058.50;;;0.24;68.43
48630;BME280;34426;52.180;4.462;2023-03-11T04:32:04;101061.69;;;0.28;69.92
48630;BME280;34426;52.180;4.462;2023-03-11T04:34:32;101061.81;;;0.20;69.25
48630;BME280;34426;52.180;4.462;2023-03-11T04:36:59;101066.13;;;0.08;69.21
48630;BME280;34426;52.180;4.462;2023-03-11T04:39:27;101059.44;;;-0.05;69.86
48630;BME280;34426;52.180;4.462;2023-03-11T04:41:54;101068.28;;;-0.09;71.05
48630;BME280;34426;52.180;4.462;2023-03-11T04:44:24;101072.00;;;-0.17;72.61
48630;BME280;34426;52.180;4.462;2023-03-11T04:46:51;101066.59;;;-0.25;73.50
48630;BME280;34426;52.180;4.462;2023-03-11T04:49:19;101065.38;;;-0.22;73.36
48630;BME280;34426;52.180;4.462;2023-03-11T04:51:46;101070.09;;;-0.31;73.44
48630;BME280;34426;52.180;4.462;2023-03-11T04:54:14;101063.28;;;-0.35;73.82
48630;BME280;34426;52.180;4.462;2023-03-11T04:56:41;101063.09;;;-0.34;73.32
48630;BME280;34426;52.180;4.462;2023-03-11T04:59:09;101074.66;;;-0.38;74.20
48630;BME280;34426;52.180;4.462;2023-03-11T05:01:38;101077.22;;;-0.37;74.80
48630;BME280;34426;52.180;4.462;2023-03-11T05:04:06;101078.06;;;-0.36;74.93
48630;BME280;34426;52.180;4.462;2023-03-11T05:06:34;101073.81;;;-0.39;74.95
48630;BME280;34426;52.180;4.462;2023-03-11T05:09:01;101072.06;;;-0.46;75.30
48630;BME280;34426;52.180;4.462;2023-03-11T05:11:29;101072.06;;;-0.46;76.13
48630;BME280;34426;52.180;4.462;2023-03-11T05:13:56;101070.91;;;-0.52;76.75
48630;BME280;34426;52.180;4.462;2023-03-11T05:16:24;101074.88;;;-0.54;77.42
48630;BME280;34426;52.180;4.462;2023-03-11T05:18:53;101083.31;;;-0.56;77.71
48630;BME280;34426;52.180;4.462;2023-03-11T05:21:20;101089.75;;;-0.63;78.34
48630;BME280;34426;52.180;4.462;2023-03-11T05:23:51;101085.59;;;-0.74;78.58
48630;BME280;34426;52.180;4.462;2023-03-11T05:26:19;101095.13;;;-0.85;78.86
48630;BME280;34426;52.180;4.462;2023-03-11T05:28:46;101087.66;;;-0.76;77.92
48630;BME280;34426;52.180;4.462;2023-03-11T05:31:13;101093.25;;;-0.70;78.64
48630;BME280;34426;52.180;4.462;2023-03-11T05:33:41;101099.50;;;-0.76;78.97
48630;BME280;34426;52.180;4.462;2023-03-11T05:36:11;101093.91;;;-0.82;78.92
48630;BME280;34426;52.180;4.462;2023-03-11T05:38:39;101092.69;;;-0.94;79.53
48630;BME280;34426;52.180;4.462;2023-03-11T05:41:06;101095.44;;;-0.94;79.40
48630;BME280;34426;52.180;4.462;2023-03-11T05:43:33;101099.09;;;-1.02;80.08
48630;BME280;34426;52.180;4.462;2023-03-11T05:46:00;101101.38;;;-1.06;80.61
48630;BME280;34426;52.180;4.462;2023-03-11T05:48:27;101104.00;;;-1.12;81.06
48630;BME280;34426;52.180;4.462;2023-03-11T05:50:55;101102.19;;;-1.20;81.60
48630;BME280;34426;52.180;4.462;2023-03-11T05:53:24;101107.91;;;-1.29;81.87
48630;BME280;34426;52.180;4.462;2023-03-11T05:56:01;101114.38;;;-1.22;81.73
48630;BME280;34426;52.180;4.462;2023-03-11T05:58:29;101114.66;;;-1.32;81.70
48630;BME280;34426;52.180;4.462;2023-03-11T06:00:57;101116.81;;;-1.27;81.38
48630;BME280;34426;52.180;4.462;2023-03-11T06:03:25;101112.59;;;-1.30;81.67
48630;BME280;34426;52.180;4.462;2023-03-11T06:05:52;101122.41;;;-1.36;81.36
48630;BME280;34426;52.180;4.462;2023-03-11T06:08:20;101127.53;;;-1.32;82.09
48630;BME280;34426;52.180;4.462;2023-03-11T06:10:49;101135.75;;;-1.32;82.45
48630;BME280;34426;52.180;4.462;2023-03-11T06:13:16;101130.50;;;-1.42;82.95
48630;BME280;34426;52.180;4.462;2023-03-11T06:15:44;101133.44;;;-1.44;82.95
48630;BME280;34426;52.180;4.462;2023-03-11T06:18:11;101133.25;;;-1.42;83.53
48630;BME280;34426;52.180;4.462;2023-03-11T06:20:39;101135.81;;;-1.41;83.35
48630;BME280;34426;52.180;4.462;2023-03-11T06:23:06;101145.06;;;-1.42;83.48
48630;BME280;34426;52.180;4.462;2023-03-11T06:25:33;101141.13;;;-1.39;83.54
48630;BME280;34426;52.180;4.462;2023-03-11T06:28:03;101139.22;;;-1.39;84.04
48630;BME280;34426;52.180;4.462;2023-03-11T06:30:31;101135.69;;;-1.47;83.84
48630;BME280;34426;52.180;4.462;2023-03-11T06:32:58;101133.44;;;-1.44;84.12
48630;BME280;34426;52.180;4.462;2023-03-11T06:35:25;101144.88;;;-1.40;84.26
48630;BME280;34426;52.180;4.462;2023-03-11T06:37:53;101149.53;;;-1.41;84.07
48630;BME280;34426;52.180;4.462;2023-03-11T06:40:20;101149.84;;;-1.36;84.08
48630;BME280;34426;52.180;4.462;2023-03-11T06:42:50;101153.53;;;-1.28;83.94
48630;BME280;34426;52.180;4.462;2023-03-11T06:45:22;101157.97;;;-1.27;84.40
48630;BME280;34426;52.180;4.462;2023-03-11T06:47:50;101157.31;;;-1.29;84.56
48630;BME280;34426;52.180;4.462;2023-03-11T06:50:17;101174.06;;;-1.24;84.71
48630;BME280;34426;52.180;4.462;2023-03-11T06:52:45;101175.59;;;-1.22;84.50
48630;BME280;34426;52.180;4.462;2023-03-11T06:55:15;101179.19;;;-1.21;84.71
48630;BME280;34426;52.180;4.462;2023-03-11T06:57:43;101173.34;;;-1.18;84.53
48630;BME280;34426;52.180;4.462;2023-03-11T07:00:11;101183.94;;;-1.15;84.84
48630;BME280;34426;52.180;4.462;2023-03-11T07:02:41;101178.41;;;-1.07;84.75
48630;BME280;34426;52.180;4.462;2023-03-11T07:05:12;101182.19;;;-1.08;85.11
48630;BME280;34426;52.180;4.462;2023-03-11T07:07:40;101180.78;;;-1.04;84.91
48630;BME280;34426;52.180;4.462;2023-03-11T07:10:10;101174.63;;;-1.06;85.50
48630;BME280;34426;52.180;4.462;2023-03-11T07:12:41;101187.44;;;-0.98;85.73
48630;BME280;34426;52.180;4.462;2023-03-11T07:15:09;101192.06;;;-0.99;86.05
48630;BME280;34426;52.180;4.462;2023-03-11T07:17:37;101198.53;;;-0.92;86.16
48630;BME280;34426;52.180;4.462;2023-03-11T07:20:08;101204.31;;;-0.87;86.41
48630;BME280;34426;52.180;4.462;2023-03-11T07:22:35;101207.25;;;-0.74;85.49
48630;BME280;34426;52.180;4.462;2023-03-11T07:25:04;101197.25;;;-0.67;85.34
48630;BME280;34426;52.180;4.462;2023-03-11T07:27:31;101200.28;;;-0.61;85.28
48630;BME280;34426;52.180;4.462;2023-03-11T07:30:01;101199.53;;;-0.55;85.41
48630;BME280;34426;52.180;4.462;2023-03-11T07:32:31;101204.97;;;-0.47;85.43
48630;BME280;34426;52.180;4.462;2023-03-11T07:34:59;101206.56;;;-0.38;85.20
48630;BME280;34426;52.180;4.462;2023-03-11T07:37:28;101195.66;;;-0.31;85.50
48630;BME280;34426;52.180;4.462;2023-03-11T07:39:57;101203.34;;;-0.27;85.04
48630;BME280;34426;52.180;4.462;2023-03-11T07:42:24;101206.00;;;-0.19;85.38
48630;BME280;34426;52.180;4.462;2023-03-11T07:44:52;101206.31;;;-0.14;85.59
48630;BME280;34426;52.180;4.462;2023-03-11T07:47:20;101211.72;;;-0.06;85.25
48630;BME280;34426;52.180;4.462;2023-03-11T07:49:48;101213.66;;;0.00;85.30
48630;BME280;34426;52.180;4.462;2023-03-11T07:52:16;101220.41;;;0.13;85.15
48630;BME280;34426;52.180;4.462;2023-03-11T07:54:46;101214.03;;;0.42;83.28
48630;BME280;34426;52.180;4.462;2023-03-11T07:57:14;101216.31;;;0.59;81.65
48630;BME280;34426;52.180;4.462;2023-03-11T07:59:41;101215.16;;;0.69;81.00
48630;BME280;34426;52.180;4.462;2023-03-11T08:02:09;101219.13;;;0.81;79.74
48630;BME280;34426;52.180;4.462;2023-03-11T08:04:37;101221.72;;;0.89;78.84
48630;BME280;34426;52.180;4.462;2023-03-11T08:07:04;101228.16;;;0.96;77.97
48630;BME280;34426;52.180;4.462;2023-03-11T08:09:33;101227.03;;;1.12;76.59
48630;BME280;34426;52.180;4.462;2023-03-11T08:12:03;101237.66;;;1.15;75.86
48630;BME280;34426;52.180;4.462;2023-03-11T08:14:30;101244.56;;;1.25;75.13
48630;BME280;34426;52.180;4.462;2023-03-11T08:16:57;101239.66;;;1.49;73.06
48630;BME280;34426;52.180;4.462;2023-03-11T08:19:27;101247.91;;;1.70;70.82
48630;BME280;34426;52.180;4.462;2023-03-11T08:21:55;101252.34;;;1.99;69.33
48630;BME280;34426;52.180;4.462;2023-03-11T08:24:22;101249.88;;;2.11;69.00
48630;BME280;34426;52.180;4.462;2023-03-11T08:26:49;101250.16;;;2.29;67.89
48630;BME280;34426;52.180;4.462;2023-03-11T08:29:20;101253.00;;;2.42;66.81
48630;BME280;34426;52.180;4.462;2023-03-11T08:31:48;101246.25;;;2.51;66.28
48630;BME280;34426;52.180;4.462;2023-03-11T08:34:16;101244.78;;;2.62;65.26
48630;BME280;34426;52.180;4.462;2023-03-11T08:36:44;101251.44;;;2.74;66.00
48630;BME280;34426;52.180;4.462;2023-03-11T08:39:11;101257.16;;;2.73;66.12
48630;BME280;34426;52.180;4.462;2023-03-11T08:41:39;101264.22;;;2.82;65.77
48630;BME280;34426;52.180;4.462;2023-03-11T08:44:06;101271.94;;;2.99;63.74
48630;BME280;34426;52.180;4.462;2023-03-11T08:46:36;101268.97;;;3.14;62.86
48630;BME280;34426;52.180;4.462;2023-03-11T08:49:07;101263.88;;;3.24;62.04
48630;BME280;34426;52.180;4.462;2023-03-11T08:51:35;101262.22;;;3.37;61.63
48630;BME280;34426;52.180;4.462;2023-03-11T08:54:05;101263.06;;;3.44;60.55
48630;BME280;34426;52.180;4.462;2023-03-11T08:56:32;101270.31;;;3.45;60.08
48630;BME280;34426;52.180;4.462;2023-03-11T08:59:00;101262.63;;;3.33;61.02
48630;BME280;34426;52.180;4.462;2023-03-11T09:01:30;101273.69;;;3.47;59.28
48630;BME280;34426;52.180;4.462;2023-03-11T09:03:59;101273.69;;;3.47;60.20
48630;BME280;34426;52.180;4.462;2023-03-11T09:06:27;101272.63;;;3.48;59.29
48630;BME280;34426;52.180;4.462;2023-03-11T09:08:54;101274.56;;;3.67;57.79
48630;BME280;34426;52.180;4.462;2023-03-11T09:11:22;101273.94;;;3.78;57.02
48630;BME280;34426;52.180;4.462;2023-03-11T09:13:50;101275.22;;;3.89;56.52
48630;BME280;34426;52.180;4.462;2023-03-11T09:16:21;101271.13;;;3.91;57.33
48630;BME280;34426;52.180;4.462;2023-03-11T09:18:49;101270.28;;;3.97;56.91
48630;BME280;34426;52.180;4.462;2023-03-11T09:21:18;101281.34;;;4.04;55.47
48630;BME280;34426;52.180;4.462;2023-03-11T09:23:46;101277.94;;;4.09;55.93
48630;BME280;34426;52.180;4.462;2023-03-11T09:26:14;101279.63;;;4.16;55.46
48630;BME280;34426;52.180;4.462;2023-03-11T09:28:42;101272.78;;;4.32;56.04
48630;BME280;34426;52.180;4.462;2023-03-11T09:31:13;101277.41;;;4.51;54.84
48630;BME280;34426;52.180;4.462;2023-03-11T09:33:41;101273.09;;;4.68;53.76
48630;BME280;34426;52.180;4.462;2023-03-11T09:36:12;101280.25;;;4.83;53.55
48630;BME280;34426;52.180;4.462;2023-03-11T09:38:42;101278.94;;;4.92;53.29
48630;BME280;34426;52.180;4.462;2023-03-11T09:41:19;101268.69;;;4.92;53.27
48630;BME280;34426;52.180;4.462;2023-03-11T09:43:59;101274.22;;;4.99;53.60
48630;BME280;34426;52.180;4.462;2023-03-11T09:46:39;101282.47;;;5.12;52.83
48630;BME280;34426;52.180;4.462;2023-03-11T09:49:18;101290.28;;;5.22;53.50
48630;BME280;34426;52.180;4.462;2023-03-11T09:51:52;101298.22;;;5.50;53.06
48630;BME280;34426;52.180;4.462;2023-03-11T09:54:26;101294.44;;;5.69;51.95
48630;BME280;34426;52.180;4.462;2023-03-11T09:56:55;101289.88;;;5.81;51.18
48630;BME280;34426;52.180;4.462;2023-03-11T09:59:28;101286.69;;;5.78;50.65
48630;BME280;34426;52.180;4.462;2023-03-11T10:01:56;101283.88;;;5.84;51.20
48630;BME280;34426;52.180;4.462;2023-03-11T10:04:26;101290.66;;;5.88;51.16
48630;BME280;34426;52.180;4.462;2023-03-11T10:06:57;101291.56;;;5.82;49.72
48630;BME280;34426;52.180;4.462;2023-03-11T10:09:36;101282.09;;;5.65;49.70
48630;BME280;34426;52.180;4.462;2023-03-11T10:12:16;101279.16;;;5.60;50.73
48630;BME280;34426;52.180;4.462;2023-03-11T10:14:56;101276.44;;;5.53;50.63
48630;BME280;34426;52.180;4.462;2023-03-11T10:20:32;101273.53;;;5.42;50.89
48630;BME280;34426;52.180;4.462;2023-03-11T10:23:10;101276.25;;;5.48;51.49
48630;BME280;34426;52.180;4.462;2023-03-11T10:25:51;101270.84;;;5.60;50.97
48630;BME280;34426;52.180;4.462;2023-03-11T10:28:21;101271.13;;;5.77;50.34
48630;BME280;34426;52.180;4.462;2023-03-11T10:30:53;101273.63;;;5.85;49.53
48630;BME280;34426;52.180;4.462;2023-03-11T10:33:25;101280.91;;;5.79;49.57
48630;BME280;34426;52.180;4.462;2023-03-11T10:35:58;101274.75;;;5.77;50.43
48630;BME280;34426;52.180;4.462;2023-03-11T10:38:29;101278.38;;;5.78;51.24
48630;BME280;34426;52.180;4.462;2023-03-11T10:41:02;101278.59;;;5.76;49.88
48630;BME280;34426;52.180;4.462;2023-03-11T10:43:34;101278.81;;;5.75;50.36
48630;BME280;34426;52.180;4.462;2023-03-11T10:46:05;101282.84;;;5.79;50.51
48630;BME280;34426;52.180;4.462;2023-03-11T10:48:36;101282.16;;;5.83;49.73
48630;BME280;34426;52.180;4.462;2023-03-11T10:51:11;101284.00;;;5.96;50.62
48630;BME280;34426;52.180;4.462;2023-03-11T10:53:44;101284.81;;;6.03;50.16
48630;BME280;34426;52.180;4.462;2023-03-11T10:56:25;101288.81;;;6.07;50.17
48630;BME280;34426;52.180;4.462;2023-03-11T10:58:53;101291.75;;;6.12;49.92
48630;BME280;34426;52.180;4.462;2023-03-11T11:01:21;101293.69;;;6.12;48.61
48630;BME280;34426;52.180;4.462;2023-03-11T11:03:51;101297.97;;;6.08;48.65
48630;BME280;34426;52.180;4.462;2023-03-11T11:06:22;101293.06;;;6.10;46.99
48630;BME280;34426;52.180;4.462;2023-03-11T11:09:13;101303.53;;;6.08;46.73
48630;BME280;34426;52.180;4.462;2023-03-11T11:12:00;101301.84;;;6.07;45.99
48630;BME280;34426;52.180;4.462;2023-03-11T11:14:42;101297.91;;;5.96;46.24
48630;BME280;34426;52.180;4.462;2023-03-11T11:17:17;101296.59;;;5.98;47.72
48630;BME280;34426;52.180;4.462;2023-03-11T11:19:45;101308.50;;;6.06;47.11
48630;BME280;34426;52.180;4.462;2023-03-11T11:22:16;101303.84;;;5.99;48.16
48630;BME280;34426;52.180;4.462;2023-03-11T11:24:46;101308.00;;;6.09;48.30
48630;BME280;34426;52.180;4.462;2023-03-11T11:27:20;101303.53;;;6.08;46.58
48630;BME280;34426;52.180;4.462;2023-03-11T11:30:04;101301.56;;;6.15;47.13
48630;BME280;34426;52.180;4.462;2023-03-11T11:32:36;101309.81;;;6.21;47.29
48630;BME280;34426;52.180;4.462;2023-03-11T11:35:06;101296.56;;;6.23;46.64
48630;BME280;34426;52.180;4.462;2023-03-11T11:37:37;101298.97;;;6.38;46.87
48630;BME280;34426;52.180;4.462;2023-03-11T11:40:20;101296.53;;;6.48;48.87
48630;BME280;34426;52.180;4.462;2023-03-11T11:42:56;101290.34;;;6.46;47.46
48630;BME280;34426;52.180;4.462;2023-03-11T11:45:35;101293.13;;;6.46;47.61
48630;BME280;34426;52.180;4.462;2023-03-11T11:48:10;101303.00;;;6.42;48.78
48630;BME280;34426;52.180;4.462;2023-03-11T11:50:43;101297.91;;;6.39;47.55
48630;BME280;34426;52.180;4.462;2023-03-11T11:53:22;101295.41;;;6.31;45.86
48630;BME280;34426;52.180;4.462;2023-03-11T11:55:52;101298.28;;;6.43;46.47
48630;BME280;34426;52.180;4.462;2023-03-11T11:58:22;101289.28;;;6.47;49.00
48630;BME280;34426;52.180;4.462;2023-03-11T12:01:03;101290.81;;;6.43;49.78
48630;BME280;34426;52.180;4.462;2023-03-11T12:06:49;101280.72;;;6.06;51.17
48630;BME280;34426;52.180;4.462;2023-03-11T12:09:26;101284.38;;;6.24;50.31
48630;BME280;34426;52.180;4.462;2023-03-11T12:12:03;101286.91;;;6.26;50.32
48630;BME280;34426;52.180;4.462;2023-03-11T12:14:44;101288.09;;;6.37;51.14
48630;BME280;34426;52.180;4.462;2023-03-11T12:17:17;101276.91;;;6.43;50.91
48630;BME280;34426;52.180;4.462;2023-03-11T12:19:50;101281.69;;;6.54;51.03
48630;BME280;34426;52.180;4.462;2023-03-11T12:22:54;101279.91;;;6.60;48.21
48630;BME280;34426;52.180;4.462;2023-03-11T12:25:33;101287.56;;;6.64;48.85
48630;BME280;34426;52.180;4.462;2023-03-11T12:28:13;101284.78;;;6.64;50.53
48630;BME280;34426;52.180;4.462;2023-03-11T12:30:46;101301.75;;;6.56;49.76
48630;BME280;34426;52.180;4.462;2023-03-11T12:33:23;101294.44;;;6.62;50.32
48630;BME280;34426;52.180;4.462;2023-03-11T12:35:55;101290.25;;;6.71;51.02
48630;BME280;34426;52.180;4.462;2023-03-11T12:38:28;101299.63;;;6.77;50.19
48630;BME280;34426;52.180;4.462;2023-03-11T12:40:59;101294.91;;;6.77;50.91
48630;BME280;34426;52.180;4.462;2023-03-11T12:47:01;101300.44;;;6.95;50.55
48630;BME280;34426;52.180;4.462;2023-03-11T12:49:31;101297.28;;;6.92;50.65
48630;BME280;34426;52.180;4.462;2023-03-11T12:52:04;101295.94;;;6.94;50.50
48630;BME280;34426;52.180;4.462;2023-03-11T12:54:42;101282.03;;;7.13;52.11
48630;BME280;34426;52.180;4.462;2023-03-11T13:00:19;101290.31;;;7.01;50.64
48630;BME280;34426;52.180;4.462;2023-03-11T13:05:53;101287.56;;;7.43;51.69
48630;BME280;34426;52.180;4.462;2023-03-11T13:08:24;101283.56;;;7.80;49.75
48630;BME280;34426;52.180;4.462;2023-03-11T13:10:53;101284.44;;;8.04;48.91
48630;BME280;34426;52.180;4.462;2023-03-11T13:13:34;101283.84;;;8.14;48.63
48630;BME280;34426;52.180;4.462;2023-03-11T13:16:35;101278.91;;;8.51;48.51
48630;BME280;34426;52.180;4.462;2023-03-11T13:23:05;101278.50;;;8.71;44.55
48630;BME280;34426;52.180;4.462;2023-03-11T13:25:38;101281.34;;;8.99;45.71
48630;BME280;34426;52.180;4.462;2023-03-11T13:28:20;101278.41;;;9.06;44.96
48630;BME280;34426;52.180;4.462;2023-03-11T13:30:55;101283.75;;;9.07;44.00
48630;BME280;34426;52.180;4.462;2023-03-11T13:33:36;101279.75;;;9.31;44.75